sensor_id;sensor_type;location;lat;lon;timestamp;P1;durP1;ratioP1;P2;durP2;ratioP2
31716;SDS011;18301;51.076;17.046;2024-01-15T00:00:45;11.32;;;6.25;;
31716;SDS011;18301;51.076;17.046;2024-01-15T00:05:48;12.60;;;6.55;;
31716;SDS011;18301;51.076;17.046;2024-01-15T00:10:49;11.52;;;5.60;;
31716;SDS011;18301;51.076;17.046;2024-01-15T00:15:51;14.68;;;7.40;;
31716;SDS011;18301;51.076;17.046;2024-01-15T00:20:53;13.63;;;6.18;;
31716;SDS011;18301;51.076;17.046;2024-01-15T00:25:54;12.77;;;6.45;;
31716;SDS011;18301;51.076;17.046;2024-01-15T00:30:56;10.85;;;5.72;;
31716;SDS011;18301;51.076;17.046;2024-01-15T00:35:58;10.70;;;6.25;;
31716;SDS011;18301;51.076;17.046;2024-01-15T00:41:00;10.18;;;5.85;;
31716;SDS011;18301;51.076;17.046;2024-01-15T00:46:02;12.40;;;6.30;;
31716;SDS011;18301;51.076;17.046;2024-01-15T00:51:04;9.30;;;5.82;;
31716;SDS011;18301;51.076;17.046;2024-01-15T00:56:06;12.35;;;6.15;;
31716;SDS011;18301;51.076;17.046;2024-01-15T01:01:07;13.48;;;6.50;;
31716;SDS011;18301;51.076;17.046;2024-01-15T01:06:09;11.10;;;6.03;;
31716;SDS011;18301;51.076;17.046;2024-01-15T01:11:14;13.75;;;6.57;;
31716;SDS011;18301;51.076;17.046;2024-01-15T01:16:17;9.75;;;5.63;;
31716;SDS011;18301;51.076;17.046;2024-01-15T01:21:18;13.63;;;7.15;;
31716;SDS011;18301;51.076;17.046;2024-01-15T01:26:20;13.80;;;7.20;;
31716;SDS011;18301;51.076;17.046;2024-01-15T01:31:22;13.23;;;6.80;;
31716;SDS011;18301;51.076;17.046;2024-01-15T01:36:24;13.38;;;7.25;;
31716;SDS011;18301;51.076;17.046;2024-01-15T01:41:26;14.40;;;7.47;;
31716;SDS011;18301;51.076;17.046;2024-01-15T01:46:28;17.77;;;7.35;;
31716;SDS011;18301;51.076;17.046;2024-01-15T01:51:30;13.52;;;6.68;;
31716;SDS011;18301;51.076;17.046;2024-01-15T01:56:32;13.77;;;7.18;;
31716;SDS011;18301;51.076;17.046;2024-01-15T02:01:34;12.60;;;6.93;;
31716;SDS011;18301;51.076;17.046;2024-01-15T02:06:36;11.10;;;6.85;;
31716;SDS011;18301;51.076;17.046;2024-01-15T02:11:38;10.73;;;6.40;;
31716;SDS011;18301;51.076;17.046;2024-01-15T02:16:39;12.13;;;6.25;;
31716;SDS011;18301;51.076;17.046;2024-01-15T02:21:41;12.02;;;7.47;;
31716;SDS011;18301;51.076;17.046;2024-01-15T02:26:43;12.43;;;6.95;;
31716;SDS011;18301;51.076;17.046;2024-01-15T02:31:45;16.50;;;7.50;;
31716;SDS011;18301;51.076;17.046;2024-01-15T02:36:47;12.10;;;6.70;;
31716;SDS011;18301;51.076;17.046;2024-01-15T02:41:49;10.88;;;5.50;;
31716;SDS011;18301;51.076;17.046;2024-01-15T02:46:50;10.98;;;6.63;;
31716;SDS011;18301;51.076;17.046;2024-01-15T02:51:52;10.05;;;6.35;;
31716;SDS011;18301;51.076;17.046;2024-01-15T02:56:54;9.82;;;6.35;;
31716;SDS011;18301;51.076;17.046;2024-01-15T03:01:56;11.07;;;6.60;;
31716;SDS011;18301;51.076;17.046;2024-01-15T03:06:57;10.32;;;6.70;;
31716;SDS011;18301;51.076;17.046;2024-01-15T03:11:59;9.32;;;5.88;;
31716;SDS011;18301;51.076;17.046;2024-01-15T03:17:01;10.45;;;5.70;;
31716;SDS011;18301;51.076;17.046;2024-01-15T03:22:03;8.13;;;5.35;;
31716;SDS011;18301;51.076;17.046;2024-01-15T03:27:04;10.13;;;5.28;;
31716;SDS011;18301;51.076;17.046;2024-01-15T03:32:06;8.20;;;4.80;;
31716;SDS011;18301;51.076;17.046;2024-01-15T03:37:08;6.50;;;4.18;;
31716;SDS011;18301;51.076;17.046;2024-01-15T03:42:10;8.32;;;5.15;;
31716;SDS011;18301;51.076;17.046;2024-01-15T03:47:11;7.25;;;4.63;;
31716;SDS011;18301;51.076;17.046;2024-01-15T03:52:13;11.75;;;5.65;;
31716;SDS011;18301;51.076;17.046;2024-01-15T03:57:15;8.02;;;5.28;;
31716;SDS011;18301;51.076;17.046;2024-01-15T04:02:16;8.27;;;5.00;;
31716;SDS011;18301;51.076;17.046;2024-01-15T04:07:18;10.10;;;5.78;;
31716;SDS011;18301;51.076;17.046;2024-01-15T04:12:20;10.80;;;5.90;;
31716;SDS011;18301;51.076;17.046;2024-01-15T04:17:21;8.40;;;5.35;;
31716;SDS011;18301;51.076;17.046;2024-01-15T04:22:23;9.30;;;5.22;;
31716;SDS011;18301;51.076;17.046;2024-01-15T04:27:26;9.98;;;5.20;;
31716;SDS011;18301;51.076;17.046;2024-01-15T04:32:27;10.23;;;5.50;;
31716;SDS011;18301;51.076;17.046;2024-01-15T04:37:29;10.82;;;5.93;;
31716;SDS011;18301;51.076;17.046;2024-01-15T04:42:31;10.57;;;6.15;;
31716;SDS011;18301;51.076;17.046;2024-01-15T04:47:32;10.70;;;6.25;;
31716;SDS011;18301;51.076;17.046;2024-01-15T04:52:34;11.20;;;6.05;;
31716;SDS011;18301;51.076;17.046;2024-01-15T04:57:36;13.38;;;6.03;;
31716;SDS011;18301;51.076;17.046;2024-01-15T05:02:37;10.13;;;5.90;;
31716;SDS011;18301;51.076;17.046;2024-01-15T05:07:39;10.55;;;6.13;;
31716;SDS011;18301;51.076;17.046;2024-01-15T05:12:41;8.85;;;5.18;;
31716;SDS011;18301;51.076;17.046;2024-01-15T05:17:42;10.52;;;5.30;;
31716;SDS011;18301;51.076;17.046;2024-01-15T05:22:44;9.52;;;5.07;;
31716;SDS011;18301;51.076;17.046;2024-01-15T05:27:46;9.07;;;4.55;;
31716;SDS011;18301;51.076;17.046;2024-01-15T05:32:48;9.23;;;4.72;;
31716;SDS011;18301;51.076;17.046;2024-01-15T05:37:49;8.20;;;4.32;;
31716;SDS011;18301;51.076;17.046;2024-01-15T05:42:51;8.30;;;4.32;;
31716;SDS011;18301;51.076;17.046;2024-01-15T05:47:53;8.15;;;4.07;;
31716;SDS011;18301;51.076;17.046;2024-01-15T05:52:54;9.35;;;4.80;;
31716;SDS011;18301;51.076;17.046;2024-01-15T05:57:56;7.80;;;4.57;;
31716;SDS011;18301;51.076;17.046;2024-01-15T06:02:58;8.18;;;4.07;;
31716;SDS011;18301;51.076;17.046;2024-01-15T06:08:00;7.22;;;4.07;;
31716;SDS011;18301;51.076;17.046;2024-01-15T06:13:03;6.28;;;3.47;;
31716;SDS011;18301;51.076;17.046;2024-01-15T06:18:05;7.20;;;4.28;;
31716;SDS011;18301;51.076;17.046;2024-01-15T06:23:07;7.70;;;4.53;;
31716;SDS011;18301;51.076;17.046;2024-01-15T06:28:08;10.02;;;5.55;;
31716;SDS011;18301;51.076;17.046;2024-01-15T06:33:11;11.10;;;5.63;;
31716;SDS011;18301;51.076;17.046;2024-01-15T06:38:12;7.43;;;4.70;;
31716;SDS011;18301;51.076;17.046;2024-01-15T06:43:14;8.35;;;4.72;;
31716;SDS011;18301;51.076;17.046;2024-01-15T06:48:19;9.05;;;4.22;;
31716;SDS011;18301;51.076;17.046;2024-01-15T06:53:21;6.47;;;3.97;;
31716;SDS011;18301;51.076;17.046;2024-01-15T06:58:22;7.28;;;3.95;;
31716;SDS011;18301;51.076;17.046;2024-01-15T07:03:24;7.85;;;3.65;;
31716;SDS011;18301;51.076;17.046;2024-01-15T07:08:26;8.85;;;4.75;;
31716;SDS011;18301;51.076;17.046;2024-01-15T07:13:28;7.97;;;4.80;;
31716;SDS011;18301;51.076;17.046;2024-01-15T07:18:30;7.75;;;4.78;;
31716;SDS011;18301;51.076;17.046;2024-01-15T07:23:31;8.57;;;4.75;;
31716;SDS011;18301;51.076;17.046;2024-01-15T07:28:33;9.32;;;4.90;;
31716;SDS011;18301;51.076;17.046;2024-01-15T07:33:35;8.82;;;4.25;;
31716;SDS011;18301;51.076;17.046;2024-01-15T07:38:36;9.48;;;5.25;;
31716;SDS011;18301;51.076;17.046;2024-01-15T07:43:38;8.00;;;4.15;;
31716;SDS011;18301;51.076;17.046;2024-01-15T07:48:40;8.32;;;4.80;;
31716;SDS011;18301;51.076;17.046;2024-01-15T07:53:42;8.65;;;4.60;;
31716;SDS011;18301;51.076;17.046;2024-01-15T07:58:43;7.53;;;4.28;;
31716;SDS011;18301;51.076;17.046;2024-01-15T08:03:45;7.65;;;4.32;;
31716;SDS011;18301;51.076;17.046;2024-01-15T08:08:47;10.07;;;4.45;;
31716;SDS011;18301;51.076;17.046;2024-01-15T08:13:49;9.43;;;4.28;;
31716;SDS011;18301;51.076;17.046;2024-01-15T08:18:50;8.13;;;4.28;;
31716;SDS011;18301;51.076;17.046;2024-01-15T08:23:52;7.18;;;4.18;;
31716;SDS011;18301;51.076;17.046;2024-01-15T08:28:54;8.00;;;4.05;;
31716;SDS011;18301;51.076;17.046;2024-01-15T08:33:56;8.65;;;4.30;;
31716;SDS011;18301;51.076;17.046;2024-01-15T08:38:57;7.55;;;3.90;;
31716;SDS011;18301;51.076;17.046;2024-01-15T08:43:59;6.35;;;3.70;;
31716;SDS011;18301;51.076;17.046;2024-01-15T08:49:01;7.97;;;4.05;;
31716;SDS011;18301;51.076;17.046;2024-01-15T08:54:04;8.32;;;4.20;;
31716;SDS011;18301;51.076;17.046;2024-01-15T08:59:06;7.32;;;3.63;;
31716;SDS011;18301;51.076;17.046;2024-01-15T09:04:08;6.72;;;3.42;;
31716;SDS011;18301;51.076;17.046;2024-01-15T09:09:10;7.85;;;3.45;;
31716;SDS011;18301;51.076;17.046;2024-01-15T09:14:12;6.53;;;3.33;;
31716;SDS011;18301;51.076;17.046;2024-01-15T09:19:17;7.68;;;3.13;;
31716;SDS011;18301;51.076;17.046;2024-01-15T09:24:18;6.05;;;3.20;;
31716;SDS011;18301;51.076;17.046;2024-01-15T09:29:28;6.35;;;3.13;;
31716;SDS011;18301;51.076;17.046;2024-01-15T09:34:30;6.05;;;3.10;;
31716;SDS011;18301;51.076;17.046;2024-01-15T09:39:32;6.88;;;3.08;;
31716;SDS011;18301;51.076;17.046;2024-01-15T09:44:34;7.20;;;2.90;;
31716;SDS011;18301;51.076;17.046;2024-01-15T09:49:36;7.43;;;3.20;;
31716;SDS011;18301;51.076;17.046;2024-01-15T09:54:40;5.43;;;3.15;;
31716;SDS011;18301;51.076;17.046;2024-01-15T09:59:42;5.43;;;2.72;;
31716;SDS011;18301;51.076;17.046;2024-01-15T10:04:45;6.75;;;2.83;;
31716;SDS011;18301;51.076;17.046;2024-01-15T10:09:46;6.55;;;2.75;;
31716;SDS011;18301;51.076;17.046;2024-01-15T10:14:50;6.07;;;2.70;;
31716;SDS011;18301;51.076;17.046;2024-01-15T10:19:52;4.90;;;2.97;;
31716;SDS011;18301;51.076;17.046;2024-01-15T10:24:54;6.25;;;2.70;;
31716;SDS011;18301;51.076;17.046;2024-01-15T10:29:59;5.45;;;2.47;;
31716;SDS011;18301;51.076;17.046;2024-01-15T10:35:01;5.85;;;2.63;;
31716;SDS011;18301;51.076;17.046;2024-01-15T10:40:05;6.07;;;2.53;;
31716;SDS011;18301;51.076;17.046;2024-01-15T10:45:07;5.97;;;2.75;;
31716;SDS011;18301;51.076;17.046;2024-01-15T10:50:10;5.10;;;2.40;;
31716;SDS011;18301;51.076;17.046;2024-01-15T10:55:12;6.70;;;2.80;;
31716;SDS011;18301;51.076;17.046;2024-01-15T11:00:20;10.75;;;3.33;;
31716;SDS011;18301;51.076;17.046;2024-01-15T11:05:22;7.50;;;2.90;;
31716;SDS011;18301;51.076;17.046;2024-01-15T11:10:43;5.78;;;2.28;;
31716;SDS011;18301;51.076;17.046;2024-01-15T11:15:54;6.57;;;2.85;;
31716;SDS011;18301;51.076;17.046;2024-01-15T11:26:36;6.65;;;3.05;;
31716;SDS011;18301;51.076;17.046;2024-01-15T11:41:51;8.65;;;3.20;;
31716;SDS011;18301;51.076;17.046;2024-01-15T11:47:02;6.80;;;2.80;;
31716;SDS011;18301;51.076;17.046;2024-01-15T11:52:05;7.93;;;2.97;;
31716;SDS011;18301;51.076;17.046;2024-01-15T11:57:09;7.05;;;2.85;;
31716;SDS011;18301;51.076;17.046;2024-01-15T12:02:16;6.82;;;2.90;;
31716;SDS011;18301;51.076;17.046;2024-01-15T12:07:18;7.78;;;2.90;;
31716;SDS011;18301;51.076;17.046;2024-01-15T12:17:45;9.32;;;3.30;;
31716;SDS011;18301;51.076;17.046;2024-01-15T12:22:49;6.80;;;3.03;;
31716;SDS011;18301;51.076;17.046;2024-01-15T12:28:02;7.20;;;2.72;;
31716;SDS011;18301;51.076;17.046;2024-01-15T12:33:04;6.03;;;2.30;;
31716;SDS011;18301;51.076;17.046;2024-01-15T12:38:07;5.28;;;2.67;;
31716;SDS011;18301;51.076;17.046;2024-01-15T12:43:08;5.47;;;2.83;;
31716;SDS011;18301;51.076;17.046;2024-01-15T12:48:10;5.32;;;2.53;;
31716;SDS011;18301;51.076;17.046;2024-01-15T12:53:12;7.10;;;3.20;;
31716;SDS011;18301;51.076;17.046;2024-01-15T12:58:19;5.70;;;2.42;;
31716;SDS011;18301;51.076;17.046;2024-01-15T13:03:22;6.88;;;3.08;;
31716;SDS011;18301;51.076;17.046;2024-01-15T13:08:24;7.00;;;3.20;;
31716;SDS011;18301;51.076;17.046;2024-01-15T13:13:28;8.30;;;3.38;;
31716;SDS011;18301;51.076;17.046;2024-01-15T13:18:29;6.68;;;3.00;;
31716;SDS011;18301;51.076;17.046;2024-01-15T13:23:32;6.68;;;3.60;;
31716;SDS011;18301;51.076;17.046;2024-01-15T13:28:34;13.45;;;3.00;;
31716;SDS011;18301;51.076;17.046;2024-01-15T13:33:35;5.15;;;2.90;;
31716;SDS011;18301;51.076;17.046;2024-01-15T13:38:38;5.20;;;2.70;;
31716;SDS011;18301;51.076;17.046;2024-01-15T13:43:40;7.88;;;2.83;;
31716;SDS011;18301;51.076;17.046;2024-01-15T13:48:42;7.65;;;3.25;;
31716;SDS011;18301;51.076;17.046;2024-01-15T13:53:44;6.32;;;3.20;;
31716;SDS011;18301;51.076;17.046;2024-01-15T13:58:45;6.93;;;3.35;;
31716;SDS011;18301;51.076;17.046;2024-01-15T14:03:49;9.40;;;3.33;;
31716;SDS011;18301;51.076;17.046;2024-01-15T14:08:51;8.68;;;3.92;;
31716;SDS011;18301;51.076;17.046;2024-01-15T14:13:53;11.20;;;5.03;;
31716;SDS011;18301;51.076;17.046;2024-01-15T14:18:55;15.60;;;6.18;;
31716;SDS011;18301;51.076;17.046;2024-01-15T14:23:57;8.98;;;4.55;;
31716;SDS011;18301;51.076;17.046;2024-01-15T14:28:59;11.82;;;5.93;;
31716;SDS011;18301;51.076;17.046;2024-01-15T14:34:01;15.77;;;6.25;;
31716;SDS011;18301;51.076;17.046;2024-01-15T14:39:04;10.93;;;5.78;;
31716;SDS011;18301;51.076;17.046;2024-01-15T14:44:06;12.75;;;6.53;;
31716;SDS011;18301;51.076;17.046;2024-01-15T14:49:08;12.63;;;6.93;;
31716;SDS011;18301;51.076;17.046;2024-01-15T14:54:10;14.18;;;6.18;;
31716;SDS011;18301;51.076;17.046;2024-01-15T14:59:12;12.32;;;5.78;;
31716;SDS011;18301;51.076;17.046;2024-01-15T15:04:13;14.57;;;6.20;;
31716;SDS011;18301;51.076;17.046;2024-01-15T15:09:15;11.43;;;5.55;;
31716;SDS011;18301;51.076;17.046;2024-01-15T15:14:17;12.25;;;5.25;;
31716;SDS011;18301;51.076;17.046;2024-01-15T15:19:19;11.77;;;5.75;;
31716;SDS011;18301;51.076;17.046;2024-01-15T15:24:20;13.60;;;6.07;;
31716;SDS011;18301;51.076;17.046;2024-01-15T15:29:22;10.10;;;5.43;;
31716;SDS011;18301;51.076;17.046;2024-01-15T15:34:26;13.57;;;5.82;;
31716;SDS011;18301;51.076;17.046;2024-01-15T15:39:27;13.63;;;6.03;;
31716;SDS011;18301;51.076;17.046;2024-01-15T15:44:29;13.05;;;6.05;;
31716;SDS011;18301;51.076;17.046;2024-01-15T15:49:31;12.32;;;5.53;;
31716;SDS011;18301;51.076;17.046;2024-01-15T15:54:33;12.40;;;5.90;;
31716;SDS011;18301;51.076;17.046;2024-01-15T15:59:35;14.07;;;5.65;;
31716;SDS011;18301;51.076;17.046;2024-01-15T16:04:36;11.32;;;5.82;;
31716;SDS011;18301;51.076;17.046;2024-01-15T16:09:38;9.55;;;5.35;;
31716;SDS011;18301;51.076;17.046;2024-01-15T16:14:41;9.75;;;4.72;;
31716;SDS011;18301;51.076;17.046;2024-01-15T16:19:45;9.93;;;4.80;;
31716;SDS011;18301;51.076;17.046;2024-01-15T16:25:07;9.27;;;5.18;;
31716;SDS011;18301;51.076;17.046;2024-01-15T16:30:10;8.88;;;4.47;;
31716;SDS011;18301;51.076;17.046;2024-01-15T16:35:26;11.25;;;4.30;;
31716;SDS011;18301;51.076;17.046;2024-01-15T16:40:28;9.95;;;5.32;;
31716;SDS011;18301;51.076;17.046;2024-01-15T16:45:30;11.48;;;5.00;;
31716;SDS011;18301;51.076;17.046;2024-01-15T16:50:32;7.88;;;4.15;;
31716;SDS011;18301;51.076;17.046;2024-01-15T16:55:33;12.18;;;4.60;;
31716;SDS011;18301;51.076;17.046;2024-01-15T17:00:35;10.60;;;5.05;;
31716;SDS011;18301;51.076;17.046;2024-01-15T17:05:37;10.65;;;4.80;;
31716;SDS011;18301;51.076;17.046;2024-01-15T17:10:39;13.38;;;4.90;;
31716;SDS011;18301;51.076;17.046;2024-01-15T17:15:42;10.30;;;5.65;;
31716;SDS011;18301;51.076;17.046;2024-01-15T17:20:43;10.60;;;4.78;;
31716;SDS011;18301;51.076;17.046;2024-01-15T17:25:47;12.50;;;5.55;;
31716;SDS011;18301;51.076;17.046;2024-01-15T17:30:49;9.48;;;5.15;;
31716;SDS011;18301;51.076;17.046;2024-01-15T17:35:51;12.65;;;5.13;;
31716;SDS011;18301;51.076;17.046;2024-01-15T17:40:54;10.95;;;5.22;;
31716;SDS011;18301;51.076;17.046;2024-01-15T17:45:55;11.00;;;5.65;;
31716;SDS011;18301;51.076;17.046;2024-01-15T17:51:02;11.52;;;5.18;;
31716;SDS011;18301;51.076;17.046;2024-01-15T17:56:04;11.43;;;6.03;;
31716;SDS011;18301;51.076;17.046;2024-01-15T18:01:06;8.40;;;4.43;;
31716;SDS011;18301;51.076;17.046;2024-01-15T18:06:07;7.57;;;4.00;;
31716;SDS011;18301;51.076;17.046;2024-01-15T18:11:16;8.73;;;4.30;;
31716;SDS011;18301;51.076;17.046;2024-01-15T18:16:19;7.13;;;3.43;;
31716;SDS011;18301;51.076;17.046;2024-01-15T18:21:24;8.18;;;3.78;;
31716;SDS011;18301;51.076;17.046;2024-01-15T18:26:26;7.47;;;3.30;;
31716;SDS011;18301;51.076;17.046;2024-01-15T18:31:28;5.32;;;3.38;;
31716;SDS011;18301;51.076;17.046;2024-01-15T18:36:31;5.55;;;3.22;;
31716;SDS011;18301;51.076;17.046;2024-01-15T18:41:32;6.63;;;3.17;;
31716;SDS011;18301;51.076;17.046;2024-01-15T18:46:35;5.90;;;3.58;;
31716;SDS011;18301;51.076;17.046;2024-01-15T18:51:36;7.72;;;3.50;;
31716;SDS011;18301;51.076;17.046;2024-01-15T18:56:41;7.20;;;4.28;;
31716;SDS011;18301;51.076;17.046;2024-01-15T19:01:43;7.70;;;4.63;;
31716;SDS011;18301;51.076;17.046;2024-01-15T19:06:45;7.68;;;4.32;;
31716;SDS011;18301;51.076;17.046;2024-01-15T19:11:49;7.78;;;3.88;;
31716;SDS011;18301;51.076;17.046;2024-01-15T19:16:51;6.68;;;3.40;;
31716;SDS011;18301;51.076;17.046;2024-01-15T19:21:53;5.88;;;3.50;;
31716;SDS011;18301;51.076;17.046;2024-01-15T19:26:55;8.43;;;4.28;;
31716;SDS011;18301;51.076;17.046;2024-01-15T19:31:57;8.80;;;4.10;;
31716;SDS011;18301;51.076;17.046;2024-01-15T19:37:00;7.60;;;3.53;;
31716;SDS011;18301;51.076;17.046;2024-01-15T19:42:02;8.23;;;4.10;;
31716;SDS011;18301;51.076;17.046;2024-01-15T19:47:04;8.05;;;3.40;;
31716;SDS011;18301;51.076;17.046;2024-01-15T19:52:06;9.90;;;4.40;;
31716;SDS011;18301;51.076;17.046;2024-01-15T19:57:08;11.55;;;4.15;;
31716;SDS011;18301;51.076;17.046;2024-01-15T20:02:09;10.18;;;4.40;;
31716;SDS011;18301;51.076;17.046;2024-01-15T20:07:11;7.50;;;4.10;;
31716;SDS011;18301;51.076;17.046;2024-01-15T20:12:14;6.68;;;3.67;;
31716;SDS011;18301;51.076;17.046;2024-01-15T20:17:17;7.55;;;4.05;;
31716;SDS011;18301;51.076;17.046;2024-01-15T20:22:19;8.07;;;4.53;;
31716;SDS011;18301;51.076;17.046;2024-01-15T20:27:21;8.05;;;3.95;;
31716;SDS011;18301;51.076;17.046;2024-01-15T20:32:23;8.68;;;3.88;;
31716;SDS011;18301;51.076;17.046;2024-01-15T20:37:25;12.00;;;4.90;;
31716;SDS011;18301;51.076;17.046;2024-01-15T20:42:26;10.32;;;5.00;;
31716;SDS011;18301;51.076;17.046;2024-01-15T20:47:28;8.35;;;3.97;;
31716;SDS011;18301;51.076;17.046;2024-01-15T20:52:32;9.45;;;4.25;;
31716;SDS011;18301;51.076;17.046;2024-01-15T20:57:35;9.18;;;4.25;;
31716;SDS011;18301;51.076;17.046;2024-01-15T21:02:37;8.25;;;4.22;;
31716;SDS011;18301;51.076;17.046;2024-01-15T21:07:39;9.77;;;4.60;;
31716;SDS011;18301;51.076;17.046;2024-01-15T21:12:40;7.72;;;3.83;;
31716;SDS011;18301;51.076;17.046;2024-01-15T21:17:42;9.88;;;5.10;;
31716;SDS011;18301;51.076;17.046;2024-01-15T21:22:46;14.70;;;5.70;;
31716;SDS011;18301;51.076;17.046;2024-01-15T21:27:49;11.38;;;5.15;;
31716;SDS011;18301;51.076;17.046;2024-01-15T21:32:52;10.30;;;4.85;;
31716;SDS011;18301;51.076;17.046;2024-01-15T21:37:54;9.35;;;4.80;;
31716;SDS011;18301;51.076;17.046;2024-01-15T21:42:55;7.85;;;4.43;;
31716;SDS011;18301;51.076;17.046;2024-01-15T21:47:57;9.65;;;4.97;;
31716;SDS011;18301;51.076;17.046;2024-01-15T21:52:59;11.27;;;5.35;;
31716;SDS011;18301;51.076;17.046;2024-01-15T21:58:01;12.05;;;5.60;;
31716;SDS011;18301;51.076;17.046;2024-01-15T22:03:03;9.05;;;4.40;;
31716;SDS011;18301;51.076;17.046;2024-01-15T22:08:05;7.93;;;4.78;;
31716;SDS011;18301;51.076;17.046;2024-01-15T22:13:07;8.98;;;4.55;;
31716;SDS011;18301;51.076;17.046;2024-01-15T22:18:08;8.73;;;5.03;;
31716;SDS011;18301;51.076;17.046;2024-01-15T22:23:10;10.20;;;4.75;;
31716;SDS011;18301;51.076;17.046;2024-01-15T22:28:12;10.88;;;5.00;;
31716;SDS011;18301;51.076;17.046;2024-01-15T22:33:14;9.55;;;4.63;;
31716;SDS011;18301;51.076;17.046;2024-01-15T22:38:15;9.60;;;4.57;;
31716;SDS011;18301;51.076;17.046;2024-01-15T22:43:17;8.25;;;4.35;;
31716;SDS011;18301;51.076;17.046;2024-01-15T22:48:19;9.55;;;4.70;;
31716;SDS011;18301;51.076;17.046;2024-01-15T22:53:20;9.55;;;4.65;;
31716;SDS011;18301;51.076;17.046;2024-01-15T22:58:22;7.72;;;4.30;;
31716;SDS011;18301;51.076;17.046;2024-01-15T23:03:24;9.20;;;4.80;;
31716;SDS011;18301;51.076;17.046;2024-01-15T23:08:25;8.20;;;5.05;;
31716;SDS011;18301;51.076;17.046;2024-01-15T23:13:27;8.13;;;4.45;;
31716;SDS011;18301;51.076;17.046;2024-01-15T23:18:29;8.63;;;4.88;;
31716;SDS011;18301;51.076;17.046;2024-01-15T23:23:30;7.15;;;4.45;;
31716;SDS011;18301;51.076;17.046;2024-01-15T23:28:32;7.25;;;4.00;;
31716;SDS011;18301;51.076;17.046;2024-01-15T23:33:34;8.65;;;4.55;;
31716;SDS011;18301;51.076;17.046;2024-01-15T23:38:36;8.43;;;4.97;;
31716;SDS011;18301;51.076;17.046;2024-01-15T23:43:39;11.20;;;5.18;;
31716;SDS011;18301;51.076;17.046;2024-01-15T23:48:41;12.52;;;5.65;;
31716;SDS011;18301;51.076;17.046;2024-01-15T23:53:43;9.07;;;5.10;;
31716;SDS011;18301;51.076;17.046;2024-01-15T23:58:45;10.25;;;4.93;;
